Extreme weather reports worldwide

Lowest temperatures

Station
 
Location
 
Name
 
Wind
Knots
Gust
Knots
Vis
SM
Temp/Dew
C
Baro
inHg
METAR
 
KIKG Kingsville, US Kleberg County Airport 0 2 -37/ 30.03 KIKG 011255Z AUTO 00000KT 2SM BR CLR M37/ A3003 RMK AO2 T1370
NZCM 6 6.21 -16/-27 29.05 NZCM 011255Z AUTO 18006KT 9999 CLR M16/M28 A2905 RMK AO2 PK WND 13029/1212 SLP844 T11641277 $
OOM YCOM Cooma, AU Cooma Snowy Mountains Airport 0 6.21 -4/-5 29.97 YCOM 011200Z AUTO 00000KT 9999 // NCD M04/M05 Q1015
WAP SCAP Alto Palena, CL Alto Palena Airport 1 0.25 -3/-4 30.38 SCAP 011300Z AUTO VRB01KT 0400 FG ////// M03/M04 Q1029
BRC SAZS San Carlos de Bariloche, AR San Carlos De Bariloche Airport 3 6.21 -3/-6 30.38 SAZS 011300Z 17003KT CAVOK M03/M06 Q1029

Station
 
Location
 
Name
 
Wind
Knots
Gust
Knots
Vis
SM
Temp/Dew
C
Baro
inHg
METAR
 
ZCO SCQP Temuco, CL La Araucanía Airport 2 0.43 -2/-2 30.32 SCQP 011300Z 35002KT 0700 R01/0750V1500U FG FEW002 SCT250 M02/M02 Q1027
FFU SCFT Futaleufu, CL Futaleufú Airport 2 0.5 -2/-2 30.30 SCFT 011300Z AUTO VRB02KT 0800 FZFG BKN001/// OVC004/// M02/M02 Q1026
ZOS SCJO Osorno, CL Cañal Bajo Carlos - Hott Siebert Airport 0 0.06 -1/-1 30.35 SCJO 011300Z 00000KT 0100 FG VV001 M01/M01 Q1028
CBR YSCB Canberra, AU Canberra International Airport 4 0.56 0/0 30.00 YSCB 011311Z AUTO 01004KT 0900 FZFG SCT001 M00/M00 Q1016 RF00.0/000.4
WCH SCTN Chaiten, CL Chaitén Airport 1 6.21 0/0 30.32 SCTN 011300Z VRB01KT CAVOK 00/00 Q1027
PMC SCTE Puerto Montt, CL El Tepual Airport 0 6.21 0/-1 30.35 SCTE 011300Z 00000KT CAVOK M00/M01 Q1028 NOSIG
TNM SCRM Isla Rey Jorge, AQ Teniente Rodolfo Marsh Martin Base 15 6.21 0/0 28.76 SCRM 011300Z 05015KT 9999 -SHSN OVC010 M00/M00 Q0974 NOSIG
MHC SCPQ Dalcahue, CL Mocopulli Airport 0 6.21 0/0 30.32 SCPQ 011300Z 00000KT CAVOK 00/00 Q1027
NQN SAZN Neuquen, AR Presidente Peron Airport 0 2.49 0/-2 30.41 SAZN 011300Z 00000KT 4000 FU NSC M00/M02 Q1030
YVM CYVM Qikiqtarjuaq, CA Qikiqtarjuaq Airport 6 2.5 1/1 29.77 CYVM 011305Z 06006KT 2 1/2SM BR BKN003 OVC009 01/01 A2977 RMK FG4ST3ST1 VIS LWR W-N SLP084
YAI SCCH Chillan, CL Gral. Bernardo O´Higgins Airport 2 1/1 30.21 SCCH 011300Z 09002KT 200 FG OVC001 01/01 Q1023
CXSE 6 1/0 CXSE 011200Z AUTO 09006KT 01/01 RMK AO1 1007 SLP152 T00100005 50012
LST YMLT Launceston, AU Launceston Airport 4 6.21 2/1 29.88 YMLT 011300Z AUTO 35004KT 9999 // NCD 02/01 Q1012 RF00.0/000.0
ZAL SCVD Valdivia, CL Pichoy Airport 0 0.31 2/2 30.35 SCVD 011300Z 00000KT 0500 FG VV002 02/02 Q1028
YDB CYDB Burwash, CA Burwash Airport 2 15 2/0 30.14 CYDB 011300Z VRB02KT 15SM FEW095 FEW210 02/00 A3014 RMK AC1CI1 ACL SLP226
CWRH 17 2/2 29.55 CWRH 011300Z AUTO 35017KT ////SM FEW002 02/02 A2955
CWOB 27 34 2/2 29.59 CWOB 011300Z AUTO 04027G34KT ////SM SCT002 02/02 A2959
K0CO 17 10 2/-5 30.80 K0CO 011255Z AUTO 14017KT 10SM SCT024 OVC029 02/M05 A3080 RMK AO2
WGT YWGT AU Wangaratta Airport 4 6.21 3/3 30.03 YWGT 011300Z AUTO 20004KT 9999 // NCD 03/03 Q1017
SCIC Curico, CL General Freire Airport 6 0.03 3/3 30.18 SCIC 011300Z 18006KT 0050 FG VV000 03/03 Q1022
CWIL 14 3/3 29.92 CWIL 011300Z AUTO 03014KT ////SM ////// 03/03 A2992
EAA PAEG Eagle, US Eagle Airport 3 10 3/0 30.03 PAEG 011253Z AUTO 22003KT 10SM CLR 03/00 A3003 RMK AO2 SLP169 T00330000 TSNO
NRA YNAR Narrandera, AU Narrandera Airport 0 6.21 3/3 30.03 YNAR 011200Z AUTO 00000KT 9999 // NCD 03/03 Q1017
RGA SAWE Rio Grande, AR Hermes Quijada International Airport 18 6.21 3/2 29.44 SAWE 011200Z 32018KT CAVOK 03/02 Q0997
WGA YSWG Wagga Wagga, AU Wagga Wagga City Airport 4 6.21 4/4 30.03 YSWG 011300Z AUTO 02004KT 9999 // NCD 04/04 Q1017
MIM YMER Merimbula, AU Merimbula Airport 3 6.21 4/3 30.00 YMER 011300Z AUTO 25003KT 9999 // NCD 04/03 Q1016
ABX YMAY Albury, AU Albury Airport 1 6.21 4/4 30.03 YMAY 011300Z AUTO 27001KT 9999 // NCD 04/04 Q1017
DZO SUDU Durazno, UY Santa Bernardina International Airport 4 0.12 4/4 30.47 SUDU 011300Z 11004KT 0200 FG BKN002 04/04 Q1032
SCON Quellon, CL Quellón Airport 3 6.21 4/4 30.32 SCON 011300Z AUTO 03003KT 350V070 9999 FEW014/// OVC063/// 04/04 Q1027
PUQ SCCI Punta Arenas, CL Pdte. Carlos Ibañez del Campo Airport 13 6.21 4/2 29.44 SCCI 011300Z 28013KT 9999 FEW045 BKN100 04/02 Q0997 NOSIG
YUX CYUX Hall Beach, CA Hall Beach Airport 8 1.25 4/4 29.75 CYUX 011300Z 03008KT 1 1/4SM BR BKN002 04/04 A2975 RMK SF6 SLP076
YHK CYHK Gjoa Haven, CA Gjoa Haven Airport 12 15 4/4 29.90 CYHK 011300Z 03012KT 15SM BKN006 OVC042 04/04 A2990 RMK ST6SC2 SLP130
CWRX 4/4 29.72 CWRX 011300Z AUTO ///// ////SM BKN002 OVC032 04/04 A2972
THU BGTL Thule, GL Thule Air Base 0 6.21 4/ 29.93 BGTL 011256Z AUTO 00000KT 9999 BKN060 04/ A2993 RMK AO2 SLP120 TSNO $
KC99 5 10 4/0 30.74 KC99 011252Z AUTO 32005KT 10SM BKN040 OVC046 04/00 A3074 RMK AO2
GFF YGTH Griffith, AU Griffith Airport 0 6.21 4/3 30.03 YGTH 011200Z AUTO 00000KT 9999 // NCD 04/03 Q1017
YKG CYAS Kangirsuk, CA Kangirsuk Airport 13 19 12 5/5 29.58 CYAS 011310Z 01013G19KT 12SM SCT003 OVC057 05/05 A2958 RMK ST3SC5 SLP026
TNC PATC Tin City, US Tin City Long Range Radar Station Airport 12 3 5/5 29.81 PATC 011302Z AUTO 03012KT 3SM BR OVC003 05/05 A2981 RMK AO2 SLP098
HBA YMHB Hobart, AU Hobart International Airport 8 6.21 5/1 29.85 YMHB 011300Z 33008KT 9999 FEW030 05/01 Q1011
AVV YMAV Melbourne, AU Avalon Airport 7 6.21 5/4 29.94 YMAV 011300Z AUTO 35007KT 9999 // NCD 05/04 Q1014
JUL SPJL Juliaca, PE Inca Manco Capac International Airport 2 6.21 5/-6 30.68 SPJL 011300Z 02002KT CAVOK 05/M06 Q1039 RMK PP000
SRE SLAL Yamparaez, BO Alcantarí Airport 5 6.21 5/-5 30.65 SLAL 011300Z 09005KT 9999 OVC070 05/M05 Q1038
SCL SCEL Santiago, CL Comodoro Arturo Merino Benítez International Airport 3 3.11 5/-3 30.18 SCEL 011300Z 28003KT 5000 HZ NSC 05/M03 Q1022 NOSIG
MDQ SAZM Mar del Plata, AR Ástor Piazzola International Airport 4 4.97 5/5 30.50 SAZM 011300Z 19004KT 170V230 8000 OVC004 05/05 Q1033
USH SAWH Ushuahia, AR Malvinas Argentinas Airport 3 6.21 5/0 29.32 SAWH 011300Z 29003KT 9999 FEW040 05/M00 Q0993